createdAt,value
2022-10-11T00:00:53.214Z,13.80
2022-10-11T00:03:33.598Z,10.70
2022-10-11T00:06:03.152Z,14.10
2022-10-11T00:08:35.297Z,12.30
2022-10-11T00:11:06.004Z,11.60
2022-10-11T00:13:33.791Z,11.20
2022-10-11T00:16:03.558Z,13.80
2022-10-11T00:18:33.364Z,12.90
2022-10-11T00:21:38.147Z,13.40
2022-10-11T00:24:07.271Z,12.80
2022-10-11T00:26:34.689Z,13.10
2022-10-11T00:29:01.725Z,12.60
2022-10-11T00:31:32.025Z,14.00
2022-10-11T00:34:03.027Z,10.40
2022-10-11T00:36:32.749Z,12.70
2022-10-11T00:38:59.402Z,11.70
2022-10-11T00:41:26.656Z,15.60
2022-10-11T00:44:15.426Z,12.80
2022-10-11T00:46:55.843Z,13.70
2022-10-11T00:49:53.824Z,12.40
2022-10-11T00:52:31.144Z,12.60
2022-10-11T00:55:04.514Z,14.80
2022-10-11T00:57:36.125Z,12.80
2022-10-11T01:00:07.750Z,15.20
2022-10-11T01:02:34.818Z,16.20
2022-10-11T01:05:25.646Z,14.10
2022-10-11T01:07:53.353Z,12.40
2022-10-11T01:10:21.281Z,14.10
2022-10-11T01:13:19.432Z,13.20
2022-10-11T01:15:55.924Z,13.30
2022-10-11T01:19:11.724Z,14.40
2022-10-11T01:21:57.108Z,16.10
2022-10-11T01:24:52.476Z,12.80
2022-10-11T01:27:46.756Z,13.90
2022-10-11T01:33:19.159Z,15.30
2022-10-11T01:36:29.742Z,18.40
2022-10-11T01:39:06.037Z,12.30
2022-10-11T01:41:40.254Z,14.40
2022-10-11T01:44:08.853Z,16.90
2022-10-11T01:46:36.424Z,13.40
2022-10-11T01:49:04.373Z,11.90
2022-10-11T01:51:46.356Z,12.00
2022-10-11T01:55:09.103Z,14.00
2022-10-11T01:57:53.038Z,11.90
2022-10-11T02:00:26.264Z,9.90
2022-10-11T02:03:28.515Z,15.40
2022-10-11T02:06:06.563Z,16.00
2022-10-11T02:08:49.342Z,12.90
2022-10-11T02:11:31.031Z,8.60
2022-10-11T02:14:20.020Z,9.30
2022-10-11T02:16:57.206Z,16.30
2022-10-11T02:19:33.571Z,14.60
2022-10-11T02:22:09.392Z,13.60
2022-10-11T02:24:41.528Z,10.10
2022-10-11T02:27:10.783Z,13.90
2022-10-11T02:29:44.544Z,11.00
2022-10-11T02:32:12.890Z,8.60
2022-10-11T02:35:01.793Z,8.40
2022-10-11T02:37:49.976Z,10.60
2022-10-11T02:40:25.396Z,10.30
2022-10-11T02:43:05.727Z,8.10
2022-10-11T02:45:39.008Z,9.50
2022-10-11T02:48:08.776Z,9.40
2022-10-11T02:50:36.681Z,7.80
2022-10-11T02:53:04.474Z,11.80
2022-10-11T02:55:33.094Z,9.20
2022-10-11T02:58:00.941Z,9.60
2022-10-11T03:00:28.587Z,9.40
2022-10-11T03:02:57.037Z,7.70
2022-10-11T03:05:23.878Z,8.60
2022-10-11T03:07:50.450Z,10.20
2022-10-11T03:10:17.816Z,8.30
2022-10-11T03:12:45.202Z,11.20
2022-10-11T03:15:14.291Z,8.10
2022-10-11T03:17:42.995Z,10.90
2022-10-11T03:20:09.864Z,9.40
2022-10-11T03:22:37.037Z,13.20
2022-10-11T03:25:05.052Z,9.80
2022-10-11T03:27:32.909Z,13.40
2022-10-11T03:30:00.265Z,10.90
2022-10-11T03:32:28.046Z,14.60
2022-10-11T03:34:57.198Z,11.90
2022-10-11T03:37:26.083Z,11.00
2022-10-11T03:39:55.538Z,10.00
2022-10-11T03:42:26.221Z,13.80
2022-10-11T03:44:53.033Z,12.50
2022-10-11T03:47:21.046Z,11.50
2022-10-11T03:49:48.786Z,10.30
2022-10-11T03:52:16.420Z,10.40
2022-10-11T03:54:44.188Z,11.40
2022-10-11T03:57:10.819Z,12.50
2022-10-11T03:59:37.863Z,10.00
2022-10-11T04:02:05.828Z,8.00
2022-10-11T04:04:35.018Z,8.30
2022-10-11T04:07:01.829Z,13.30
2022-10-11T04:09:29.430Z,10.50
2022-10-11T04:11:57.757Z,10.10
2022-10-11T04:14:27.363Z,10.70
2022-10-11T04:16:57.378Z,9.20
2022-10-11T04:19:27.081Z,9.50
2022-10-11T04:21:54.277Z,7.60
2022-10-11T04:24:21.964Z,10.90
2022-10-11T04:26:48.863Z,8.40
2022-10-11T04:29:17.076Z,12.90
2022-10-11T04:31:44.003Z,9.60
2022-10-11T04:34:10.735Z,23.90
2022-10-11T04:36:38.843Z,8.60
2022-10-11T04:39:08.816Z,12.90
2022-10-11T04:41:36.920Z,8.00
2022-10-11T04:44:09.773Z,10.80
2022-10-11T04:46:41.370Z,10.70
2022-10-11T04:49:10.300Z,8.20
2022-10-11T04:51:45.001Z,10.40
2022-10-11T04:54:12.134Z,8.10
2022-10-11T04:56:39.459Z,12.80
2022-10-11T04:59:07.061Z,8.70
2022-10-11T05:01:34.682Z,10.20
2022-10-11T05:04:02.153Z,11.40
2022-10-11T05:06:29.140Z,11.40
2022-10-11T05:09:01.833Z,15.50
2022-10-11T05:11:28.734Z,8.20
2022-10-11T05:13:56.488Z,11.30
2022-10-11T05:16:23.828Z,11.50
2022-10-11T05:18:50.943Z,15.90
2022-10-11T05:21:22.350Z,9.50
2022-10-11T05:23:57.939Z,11.60
2022-10-11T05:26:27.315Z,13.00
2022-10-11T05:28:56.621Z,9.10
2022-10-11T05:31:28.553Z,11.60
2022-10-11T05:33:56.500Z,13.40
2022-10-11T05:36:24.367Z,9.50
2022-10-11T05:38:52.696Z,10.90
2022-10-11T05:41:19.399Z,16.70
2022-10-11T05:43:48.175Z,15.60
2022-10-11T05:46:14.906Z,10.60
2022-10-11T05:48:42.075Z,9.40
2022-10-11T05:51:11.791Z,10.20
2022-10-11T05:53:40.467Z,11.10
2022-10-11T05:56:21.290Z,11.80
2022-10-11T05:58:50.067Z,9.10
2022-10-11T06:01:26.667Z,6.80
2022-10-11T06:03:55.321Z,9.80
2022-10-11T06:06:24.431Z,10.40
2022-10-11T06:08:51.230Z,16.40
2022-10-11T06:11:21.220Z,15.50
2022-10-11T06:13:48.193Z,16.10
2022-10-11T06:16:16.314Z,20.10
2022-10-11T06:18:43.921Z,11.80
2022-10-11T06:21:15.501Z,9.90
2022-10-11T06:23:42.645Z,12.90
2022-10-11T06:26:10.332Z,9.90
2022-10-11T06:28:37.961Z,11.40
2022-10-11T06:31:05.759Z,9.20
2022-10-11T06:33:33.521Z,8.10
2022-10-11T06:36:04.006Z,11.80
2022-10-11T06:38:30.783Z,13.10
2022-10-11T06:40:57.600Z,9.30
2022-10-11T06:43:24.875Z,15.30
2022-10-11T06:45:51.825Z,7.30
2022-10-11T06:48:20.807Z,6.40
2022-10-11T06:50:59.541Z,7.40
2022-10-11T06:53:28.517Z,6.00
2022-10-11T06:56:09.965Z,9.00
2022-10-11T06:58:39.605Z,8.30
2022-10-11T07:01:12.078Z,8.70
2022-10-11T07:03:39.344Z,7.00
2022-10-11T07:06:10.714Z,7.90
2022-10-11T07:08:45.019Z,12.20
2022-10-11T07:11:18.398Z,13.40
2022-10-11T07:13:57.655Z,12.60
2022-10-11T07:16:28.058Z,7.80
2022-10-11T07:19:00.454Z,12.40
2022-10-11T07:21:30.637Z,13.90
2022-10-11T07:23:57.898Z,10.90
2022-10-11T07:26:26.020Z,6.50
2022-10-11T07:28:52.657Z,7.20
2022-10-11T07:31:22.946Z,4.60
2022-10-11T07:33:49.884Z,12.50
2022-10-11T07:36:16.673Z,5.10
2022-10-11T07:38:45.271Z,9.00
2022-10-11T07:41:14.036Z,8.70
2022-10-11T07:43:47.538Z,9.40
2022-10-11T07:46:16.070Z,7.10
2022-10-11T07:48:58.564Z,8.80
2022-10-11T07:51:31.706Z,9.80
2022-10-11T07:53:59.760Z,7.20
2022-10-11T07:56:29.020Z,7.70
2022-10-11T07:59:02.934Z,9.80
2022-10-11T08:01:31.392Z,7.30
2022-10-11T08:03:58.575Z,13.40
2022-10-11T08:06:31.114Z,7.80
2022-10-11T08:09:18.049Z,9.60
2022-10-11T08:11:54.471Z,7.10
2022-10-11T08:14:21.788Z,5.70
2022-10-11T08:16:49.722Z,11.80
2022-10-11T08:19:18.213Z,8.10
2022-10-11T08:21:46.045Z,18.60
2022-10-11T08:24:13.506Z,5.70
2022-10-11T08:26:40.964Z,11.70
2022-10-11T08:29:09.137Z,5.70
2022-10-11T08:31:38.755Z,9.60
2022-10-11T08:34:05.386Z,9.20
2022-10-11T08:36:37.694Z,6.20
2022-10-11T08:39:07.874Z,7.50
2022-10-11T08:41:39.762Z,6.20
2022-10-11T08:45:05.546Z,7.50
2022-10-11T08:47:32.734Z,6.00
2022-10-11T08:50:00.208Z,1.20
2022-10-11T08:52:34.311Z,10.80
2022-10-11T08:57:53.462Z,10.10
2022-10-11T09:00:22.875Z,8.60
2022-10-11T09:03:10.208Z,16.50
2022-10-11T09:06:02.673Z,8.20
2022-10-11T09:08:45.787Z,11.00
2022-10-11T09:11:34.791Z,9.20
2022-10-11T09:14:12.303Z,7.90
2022-10-11T09:16:58.340Z,6.00
2022-10-11T09:19:32.274Z,7.20
2022-10-11T09:22:17.616Z,5.80
2022-10-11T09:25:25.416Z,6.90
2022-10-11T09:28:14.101Z,7.60
2022-10-11T09:30:47.804Z,7.10
2022-10-11T09:36:50.890Z,8.50
2022-10-11T09:39:36.687Z,9.10
2022-10-11T09:42:08.112Z,8.60
2022-10-11T09:44:50.181Z,12.00
2022-10-11T09:47:26.977Z,10.60
2022-10-11T09:50:16.952Z,15.50
2022-10-11T09:52:56.917Z,16.70
2022-10-11T09:55:34.409Z,8.80
2022-10-11T09:58:02.669Z,10.80
2022-10-11T10:00:36.248Z,7.90
2022-10-11T10:05:37.054Z,14.40
2022-10-11T10:08:23.092Z,12.80
2022-10-11T10:10:59.455Z,7.60
2022-10-11T10:13:50.751Z,8.30
2022-10-11T10:16:32.139Z,8.70
2022-10-11T10:19:24.986Z,10.20
2022-10-11T10:21:54.845Z,6.50
2022-10-11T10:24:32.605Z,6.80
2022-10-11T10:27:20.741Z,24.90
2022-10-11T10:30:12.782Z,6.30
2022-10-11T10:32:59.422Z,6.90
2022-10-11T10:35:44.079Z,6.40
2022-10-11T10:38:36.912Z,12.00
2022-10-11T10:41:12.839Z,19.30
2022-10-11T10:43:41.942Z,12.60
2022-10-11T10:46:42.897Z,12.80
2022-10-11T10:52:36.827Z,11.60
2022-10-11T10:55:20.822Z,8.40
2022-10-11T10:58:29.357Z,13.60
2022-10-11T11:01:29.565Z,14.10
2022-10-11T11:04:12.273Z,13.00
2022-10-11T11:07:03.834Z,9.90
2022-10-11T11:09:41.662Z,13.50
2022-10-11T11:12:23.176Z,8.70
2022-10-11T11:15:08.730Z,7.20
2022-10-11T11:18:02.963Z,6.30
2022-10-11T11:21:05.574Z,5.50
2022-10-11T11:24:10.594Z,7.00
2022-10-11T11:27:34.589Z,10.90
2022-10-11T11:30:11.448Z,9.00
2022-10-11T11:33:09.972Z,7.70
2022-10-11T11:35:41.793Z,9.20
2022-10-11T11:38:28.581Z,4.30
2022-10-11T11:41:04.800Z,8.40
2022-10-11T11:43:37.315Z,7.50
2022-10-11T11:46:14.692Z,14.10
2022-10-11T11:48:43.695Z,12.90
2022-10-11T11:51:34.775Z,6.40
2022-10-11T11:54:27.630Z,7.50
2022-10-11T11:57:12.597Z,33.00
2022-10-11T11:59:52.873Z,14.30
2022-10-11T12:02:41.377Z,7.60
2022-10-11T12:05:10.584Z,11.10
2022-10-11T12:08:00.640Z,11.40
2022-10-11T12:10:33.451Z,5.70
2022-10-11T12:13:21.086Z,8.50
2022-10-11T12:16:14.047Z,5.90
2022-10-11T12:19:12.213Z,6.60
2022-10-11T12:21:44.802Z,11.90
2022-10-11T12:24:22.740Z,5.50
2022-10-11T12:26:55.357Z,9.30
2022-10-11T12:29:46.659Z,13.30
2022-10-11T12:32:35.271Z,10.90
2022-10-11T12:35:39.603Z,12.10
2022-10-11T12:38:33.276Z,9.80
2022-10-11T12:41:15.032Z,7.60
2022-10-11T12:43:48.158Z,8.20
2022-10-11T12:46:49.986Z,9.70
2022-10-11T12:49:29.555Z,9.20
2022-10-11T12:52:27.278Z,10.60
2022-10-11T12:55:25.741Z,5.70
2022-10-11T12:58:42.141Z,12.00
2022-10-11T13:01:21.174Z,8.20
2022-10-11T13:04:10.331Z,10.60
2022-10-11T13:06:53.142Z,7.00
2022-10-11T13:09:32.305Z,10.10
2022-10-11T13:12:13.085Z,14.40
2022-10-11T13:14:46.731Z,7.90
2022-10-11T13:19:43.101Z,6.10
2022-10-11T13:22:20.839Z,6.80
2022-10-11T13:24:48.303Z,8.50
2022-10-11T13:27:25.973Z,6.90
2022-10-11T13:29:55.172Z,7.00
2022-10-11T13:32:31.483Z,9.10
2022-10-11T13:35:07.185Z,8.60
2022-10-11T13:37:52.433Z,6.20
2022-10-11T13:43:09.117Z,8.40
2022-10-11T13:45:38.684Z,9.20
2022-10-11T13:48:16.153Z,5.50
2022-10-11T13:50:59.388Z,7.90
2022-10-11T13:53:26.251Z,14.30
2022-10-11T13:55:59.291Z,6.80
2022-10-11T13:58:40.066Z,8.60
2022-10-11T14:01:25.268Z,9.40
2022-10-11T14:04:08.619Z,5.60
2022-10-11T14:06:45.670Z,7.80
2022-10-11T14:09:31.585Z,7.10
2022-10-11T14:12:34.881Z,28.00
2022-10-11T14:15:05.853Z,13.70
2022-10-11T14:17:39.080Z,10.20
2022-10-11T14:20:15.437Z,8.60
2022-10-11T14:22:44.097Z,11.00
2022-10-11T14:25:12.568Z,6.60
2022-10-11T14:27:44.140Z,9.20
2022-10-11T14:30:25.441Z,5.60
2022-10-11T14:32:56.249Z,9.40
2022-10-11T14:35:30.643Z,7.40
2022-10-11T14:37:57.456Z,9.60
2022-10-11T14:40:30.368Z,11.30
2022-10-11T14:42:59.422Z,7.30
2022-10-11T14:45:27.726Z,10.10
2022-10-11T14:47:57.372Z,6.50
2022-10-11T14:50:47.397Z,9.40
2022-10-11T14:53:14.672Z,6.20
2022-10-11T14:55:42.514Z,6.90
2022-10-11T14:58:11.067Z,6.60
2022-10-11T15:00:43.550Z,12.40
2022-10-11T15:03:11.129Z,10.30
2022-10-11T15:05:39.777Z,13.20
2022-10-11T15:08:06.829Z,10.90
2022-10-11T15:10:39.277Z,12.60
2022-10-11T15:13:10.318Z,15.40
2022-10-11T15:15:41.441Z,8.00
2022-10-11T15:18:17.076Z,11.40
2022-10-11T15:20:45.995Z,11.80
2022-10-11T15:23:13.200Z,12.70
2022-10-11T15:25:41.603Z,12.00
2022-10-11T15:28:21.246Z,15.00
2022-10-11T15:30:50.741Z,10.90
2022-10-11T15:33:21.478Z,11.80
2022-10-11T15:35:50.873Z,9.80
2022-10-11T15:38:23.830Z,15.20
2022-10-11T15:40:52.891Z,12.70
2022-10-11T15:43:24.712Z,13.20
2022-10-11T15:45:57.264Z,18.10
2022-10-11T15:48:25.998Z,22.10
2022-10-11T15:50:53.810Z,18.60
2022-10-11T15:53:28.265Z,25.90
2022-10-11T15:56:03.095Z,24.10
2022-10-11T15:58:35.139Z,17.90
2022-10-11T16:01:12.538Z,36.00
2022-10-11T16:03:39.358Z,30.10
2022-10-11T16:06:06.601Z,59.10
2022-10-11T16:08:36.399Z,51.90
2022-10-11T16:11:05.159Z,32.40
2022-10-11T16:13:33.306Z,33.90
2022-10-11T16:16:05.924Z,32.40
2022-10-11T16:18:36.740Z,29.70
2022-10-11T16:21:09.640Z,25.90
2022-10-11T16:23:40.588Z,30.60
2022-10-11T16:26:12.848Z,26.40
2022-10-11T16:28:39.695Z,29.60
2022-10-11T16:31:16.715Z,26.10
2022-10-11T16:33:47.699Z,37.60
2022-10-11T16:36:31.435Z,33.30
2022-10-11T16:38:59.754Z,34.20
2022-10-11T16:41:27.757Z,25.80
2022-10-11T16:43:55.221Z,27.70
2022-10-11T16:46:23.589Z,30.70
2022-10-11T16:48:53.434Z,26.80
2022-10-11T16:51:19.916Z,43.10
2022-10-11T16:53:48.000Z,43.00
2022-10-11T16:56:21.176Z,38.80
2022-10-11T16:58:51.498Z,32.50
2022-10-11T17:01:18.661Z,31.40
2022-10-11T17:03:45.601Z,20.80
2022-10-11T17:06:12.142Z,37.90
2022-10-11T17:08:39.008Z,37.10
2022-10-11T17:11:06.864Z,39.50
2022-10-11T17:13:33.541Z,35.90
2022-10-11T17:16:00.054Z,47.60
2022-10-11T17:18:30.944Z,60.90
2022-10-11T17:21:09.780Z,50.00
2022-10-11T17:24:04.517Z,52.20
2022-10-11T17:26:34.776Z,53.20
2022-10-11T17:29:03.391Z,57.00
2022-10-11T17:31:35.976Z,46.60
2022-10-11T17:34:05.990Z,52.00
2022-10-11T17:36:35.383Z,52.80
2022-10-11T17:39:07.191Z,61.30
2022-10-11T17:41:34.159Z,55.40
2022-10-11T17:44:06.149Z,50.80
2022-10-11T17:47:00.372Z,50.80
2022-10-11T17:49:36.388Z,46.30
2022-10-11T17:54:51.809Z,56.30
2022-10-11T17:57:19.296Z,54.50
2022-10-11T17:59:46.132Z,63.30
2022-10-11T18:02:14.192Z,61.20
2022-10-11T18:04:41.572Z,54.70
2022-10-11T18:07:09.144Z,69.60
2022-10-11T18:09:37.877Z,148.90
2022-10-11T18:12:06.298Z,109.60
2022-10-11T18:14:34.838Z,113.70
2022-10-11T18:17:02.516Z,133.00
2022-10-11T18:19:31.355Z,125.30
2022-10-11T18:22:03.207Z,120.90
2022-10-11T18:24:35.551Z,132.90
2022-10-11T18:27:06.377Z,124.30
2022-10-11T18:29:32.973Z,120.30
2022-10-11T18:31:59.474Z,118.70
2022-10-11T18:34:28.114Z,119.50
2022-10-11T18:36:55.235Z,119.80
2022-10-11T18:39:27.742Z,111.50
2022-10-11T18:41:56.469Z,98.00
2022-10-11T18:44:25.289Z,112.90
2022-10-11T18:46:53.750Z,113.00
2022-10-11T18:49:21.698Z,112.50
2022-10-11T18:51:48.943Z,94.90
2022-10-11T18:54:21.108Z,94.90
2022-10-11T18:56:50.537Z,83.00
2022-10-11T18:59:17.818Z,78.50
2022-10-11T19:03:12.446Z,62.30
2022-10-11T19:05:41.082Z,57.60
2022-10-11T19:08:09.763Z,53.80
2022-10-11T19:10:39.699Z,52.60
2022-10-11T19:13:09.672Z,46.10
2022-10-11T19:15:39.330Z,41.30
2022-10-11T19:18:07.647Z,35.50
2022-10-11T19:20:36.963Z,32.60
2022-10-11T19:23:07.880Z,36.00
2022-10-11T19:25:38.100Z,33.90
2022-10-11T19:28:06.071Z,36.00
2022-10-11T19:30:36.135Z,35.90
2022-10-11T19:33:05.711Z,31.90
2022-10-11T19:35:33.442Z,33.90
2022-10-11T19:38:01.697Z,40.50
2022-10-11T19:40:31.643Z,58.10
2022-10-11T19:43:07.102Z,58.00
2022-10-11T19:48:06.851Z,65.20
2022-10-11T19:50:37.185Z,46.00
2022-10-11T19:53:12.544Z,46.70
2022-10-11T19:55:46.361Z,38.30
2022-10-11T19:58:15.028Z,61.80
2022-10-11T20:00:43.049Z,59.10
2022-10-11T20:03:12.058Z,56.00
2022-10-11T20:05:41.091Z,56.10
2022-10-11T20:08:13.606Z,54.00
2022-10-11T20:10:49.108Z,43.00
2022-10-11T20:13:22.884Z,39.00
2022-10-11T20:15:57.633Z,41.40
2022-10-11T20:18:28.343Z,33.80
2022-10-11T20:21:21.912Z,35.80
2022-10-11T20:23:51.486Z,35.10
2022-10-11T20:26:22.746Z,41.10
2022-10-11T20:28:56.052Z,34.70
2022-10-11T20:31:27.942Z,33.40
2022-10-11T20:34:02.386Z,37.90
2022-10-11T20:36:32.208Z,35.40
2022-10-11T20:39:08.732Z,33.30
2022-10-11T20:41:43.708Z,31.20
2022-10-11T20:44:13.386Z,33.10
2022-10-11T20:46:42.902Z,33.20
2022-10-11T20:49:14.193Z,33.50
2022-10-11T20:51:44.115Z,29.00
2022-10-11T20:54:12.165Z,25.20
2022-10-11T20:56:42.296Z,25.10
2022-10-11T20:59:10.779Z,25.20
2022-10-11T21:01:41.098Z,24.50
2022-10-11T21:04:18.210Z,31.80
2022-10-11T21:06:48.394Z,17.00
2022-10-11T21:09:17.679Z,19.70
2022-10-11T21:11:46.332Z,21.70
2022-10-11T21:14:19.781Z,20.30
2022-10-11T21:16:47.845Z,23.30
2022-10-11T21:19:16.277Z,20.50
2022-10-11T21:21:51.160Z,22.10
2022-10-11T21:24:23.083Z,20.00
2022-10-11T21:26:59.599Z,25.50
2022-10-11T21:29:28.944Z,28.80
2022-10-11T21:31:57.343Z,21.10
2022-10-11T21:34:30.373Z,19.10
2022-10-11T21:37:00.669Z,21.80
2022-10-11T21:39:29.945Z,18.30
2022-10-11T21:41:58.524Z,19.20
2022-10-11T21:44:26.483Z,19.40
2022-10-11T21:47:11.760Z,18.30
2022-10-11T21:49:40.407Z,23.80
2022-10-11T21:52:10.181Z,17.50
2022-10-11T21:54:39.178Z,20.30
2022-10-11T21:57:08.469Z,23.30
2022-10-11T21:59:36.334Z,24.60
2022-10-11T22:02:05.979Z,128.60
2022-10-11T22:04:34.116Z,112.80
2022-10-11T22:07:01.940Z,107.00
2022-10-11T22:09:30.634Z,85.90
2022-10-11T22:11:59.138Z,67.10
2022-10-11T22:14:27.304Z,51.50
2022-10-11T22:16:55.750Z,48.70
2022-10-11T22:19:25.776Z,41.20
2022-10-11T22:21:54.175Z,37.00
2022-10-11T22:24:23.868Z,56.80
2022-10-11T22:26:52.747Z,49.40
2022-10-11T22:29:21.351Z,35.70
2022-10-11T22:31:49.607Z,46.30
2022-10-11T22:34:17.972Z,54.80
2022-10-11T22:36:45.815Z,48.30
2022-10-11T22:39:13.934Z,36.80
2022-10-11T22:41:41.827Z,36.70
2022-10-11T22:44:10.941Z,39.30
2022-10-11T22:46:41.897Z,35.70
2022-10-11T22:49:10.192Z,36.50
2022-10-11T22:51:38.607Z,36.80
2022-10-11T22:54:07.046Z,42.30
2022-10-11T22:56:35.049Z,34.50
2022-10-11T22:59:03.681Z,38.60
2022-10-11T23:01:33.045Z,39.80
2022-10-11T23:04:02.219Z,40.40
2022-10-11T23:06:30.592Z,43.80
2022-10-11T23:09:00.178Z,35.90
2022-10-11T23:11:30.795Z,40.50
2022-10-11T23:13:58.525Z,32.30
2022-10-11T23:16:26.352Z,41.00
2022-10-11T23:18:55.400Z,35.20
2022-10-11T23:21:24.434Z,32.70
2022-10-11T23:23:53.802Z,27.40
2022-10-11T23:26:25.797Z,25.00
2022-10-11T23:28:55.527Z,34.70
2022-10-11T23:31:23.904Z,38.40
2022-10-11T23:33:53.829Z,37.30
2022-10-11T23:36:25.590Z,40.80
2022-10-11T23:38:57.970Z,41.30
2022-10-11T23:41:28.422Z,27.70
2022-10-11T23:43:58.056Z,29.20
2022-10-11T23:46:27.052Z,47.20
2022-10-11T23:48:58.271Z,55.40
2022-10-11T23:51:26.702Z,44.50
2022-10-11T23:53:55.600Z,47.10
2022-10-11T23:56:24.248Z,48.20
2022-10-11T23:58:52.215Z,42.90
